sensor_id;sensor_type;location;lat;lon;timestamp;P1;durP1;ratioP1;P2;durP2;ratioP2
52438;SDS011;38359;53.150;6.504;2023-07-29T00:07:20;12.18;;;8.93;;
52438;SDS011;38359;53.150;6.504;2023-07-29T00:17:46;16.33;;;8.55;;
52438;SDS011;38359;53.150;6.504;2023-07-29T00:28:18;13.95;;;8.75;;
52438;SDS011;38359;53.150;6.504;2023-07-29T00:38:44;14.93;;;9.27;;
52438;SDS011;38359;53.150;6.504;2023-07-29T00:49:10;13.05;;;8.50;;
52438;SDS011;38359;53.150;6.504;2023-07-29T00:59:36;14.32;;;9.05;;
52438;SDS011;38359;53.150;6.504;2023-07-29T01:21:18;14.25;;;9.02;;
52438;SDS011;38359;53.150;6.504;2023-07-29T01:31:45;14.30;;;9.32;;
52438;SDS011;38359;53.150;6.504;2023-07-29T01:42:13;14.93;;;8.80;;
52438;SDS011;38359;53.150;6.504;2023-07-29T01:52:39;17.20;;;9.77;;
52438;SDS011;38359;53.150;6.504;2023-07-29T02:03:05;14.45;;;9.57;;
52438;SDS011;38359;53.150;6.504;2023-07-29T02:13:37;14.85;;;9.30;;
52438;SDS011;38359;53.150;6.504;2023-07-29T02:24:03;15.20;;;10.10;;
52438;SDS011;38359;53.150;6.504;2023-07-29T02:34:29;17.85;;;10.25;;
52438;SDS011;38359;53.150;6.504;2023-07-29T02:44:55;16.13;;;9.98;;
52438;SDS011;38359;53.150;6.504;2023-07-29T02:55:21;18.25;;;10.10;;
52438;SDS011;38359;53.150;6.504;2023-07-29T03:05:47;20.48;;;10.23;;
52438;SDS011;38359;53.150;6.504;2023-07-29T03:16:14;19.88;;;10.57;;
52438;SDS011;38359;53.150;6.504;2023-07-29T03:26:48;15.95;;;8.43;;
52438;SDS011;38359;53.150;6.504;2023-07-29T03:37:13;14.00;;;9.00;;
52438;SDS011;38359;53.150;6.504;2023-07-29T03:47:39;17.60;;;9.18;;
52438;SDS011;38359;53.150;6.504;2023-07-29T03:58:05;13.68;;;8.43;;
52438;SDS011;38359;53.150;6.504;2023-07-29T04:08:31;12.82;;;8.52;;
52438;SDS011;38359;53.150;6.504;2023-07-29T04:18:57;15.90;;;8.45;;
52438;SDS011;38359;53.150;6.504;2023-07-29T04:29:29;15.60;;;8.33;;
52438;SDS011;38359;53.150;6.504;2023-07-29T04:39:56;14.60;;;6.88;;
52438;SDS011;38359;53.150;6.504;2023-07-29T04:50:22;12.13;;;5.72;;
52438;SDS011;38359;53.150;6.504;2023-07-29T05:00:48;18.95;;;5.25;;
52438;SDS011;38359;53.150;6.504;2023-07-29T05:11:21;13.98;;;5.05;;
52438;SDS011;38359;53.150;6.504;2023-07-29T05:22:00;10.57;;;4.32;;
52438;SDS011;38359;53.150;6.504;2023-07-29T05:32:25;14.02;;;4.80;;
52438;SDS011;38359;53.150;6.504;2023-07-29T05:42:51;9.60;;;3.78;;
52438;SDS011;38359;53.150;6.504;2023-07-29T05:53:17;7.03;;;3.67;;
52438;SDS011;38359;53.150;6.504;2023-07-29T06:03:43;10.38;;;3.78;;
52438;SDS011;38359;53.150;6.504;2023-07-29T06:14:16;10.63;;;3.75;;
52438;SDS011;38359;53.150;6.504;2023-07-29T06:24:41;9.63;;;3.57;;
52438;SDS011;38359;53.150;6.504;2023-07-29T06:35:07;9.98;;;3.72;;
52438;SDS011;38359;53.150;6.504;2023-07-29T06:45:33;12.15;;;4.20;;
52438;SDS011;38359;53.150;6.504;2023-07-29T06:55:59;11.65;;;4.07;;
52438;SDS011;38359;53.150;6.504;2023-07-29T07:06:25;12.02;;;3.90;;
52438;SDS011;38359;53.150;6.504;2023-07-29T07:16:51;11.00;;;4.60;;
52438;SDS011;38359;53.150;6.504;2023-07-29T07:27:23;16.38;;;4.65;;
52438;SDS011;38359;53.150;6.504;2023-07-29T07:37:49;9.65;;;4.38;;
52438;SDS011;38359;53.150;6.504;2023-07-29T07:48:14;16.08;;;6.72;;
52438;SDS011;38359;53.150;6.504;2023-07-29T07:58:41;15.38;;;4.93;;
52438;SDS011;38359;53.150;6.504;2023-07-29T08:09:07;14.15;;;4.68;;
52438;SDS011;38359;53.150;6.504;2023-07-29T08:19:33;12.57;;;4.20;;
52438;SDS011;38359;53.150;6.504;2023-07-29T08:30:12;11.02;;;3.33;;
52438;SDS011;38359;53.150;6.504;2023-07-29T08:40:41;9.38;;;3.58;;
52438;SDS011;38359;53.150;6.504;2023-07-29T08:51:12;13.15;;;3.50;;
52438;SDS011;38359;53.150;6.504;2023-07-29T09:01:39;8.70;;;3.10;;
52438;SDS011;38359;53.150;6.504;2023-07-29T09:12:13;19.88;;;2.60;;
52438;SDS011;38359;53.150;6.504;2023-07-29T09:22:46;8.75;;;2.05;;
52438;SDS011;38359;53.150;6.504;2023-07-29T09:33:19;8.02;;;1.83;;
52438;SDS011;38359;53.150;6.504;2023-07-29T09:43:45;5.93;;;2.17;;
52438;SDS011;38359;53.150;6.504;2023-07-29T09:54:10;10.27;;;2.65;;
52438;SDS011;38359;53.150;6.504;2023-07-29T10:04:38;5.07;;;1.65;;
52438;SDS011;38359;53.150;6.504;2023-07-29T10:15:06;9.32;;;1.50;;
52438;SDS011;38359;53.150;6.504;2023-07-29T10:25:38;6.77;;;1.50;;
52438;SDS011;38359;53.150;6.504;2023-07-29T10:36:12;4.10;;;1.52;;
52438;SDS011;38359;53.150;6.504;2023-07-29T10:46:38;7.63;;;1.98;;
52438;SDS011;38359;53.150;6.504;2023-07-29T10:57:04;6.68;;;2.60;;
52438;SDS011;38359;53.150;6.504;2023-07-29T11:07:30;2.58;;;1.30;;
52438;SDS011;38359;53.150;6.504;2023-07-29T11:17:57;6.57;;;1.75;;
52438;SDS011;38359;53.150;6.504;2023-07-29T11:28:38;4.40;;;1.38;;
52438;SDS011;38359;53.150;6.504;2023-07-29T11:39:19;6.05;;;1.73;;
52438;SDS011;38359;53.150;6.504;2023-07-29T11:49:51;6.95;;;2.25;;
52438;SDS011;38359;53.150;6.504;2023-07-29T12:00:27;4.55;;;2.22;;
52438;SDS011;38359;53.150;6.504;2023-07-29T12:11:08;7.95;;;2.42;;
52438;SDS011;38359;53.150;6.504;2023-07-29T12:21:54;9.27;;;2.38;;
52438;SDS011;38359;53.150;6.504;2023-07-29T12:42:50;6.82;;;2.03;;
52438;SDS011;38359;53.150;6.504;2023-07-29T12:53:16;6.53;;;2.60;;
52438;SDS011;38359;53.150;6.504;2023-07-29T13:03:46;8.13;;;1.88;;
52438;SDS011;38359;53.150;6.504;2023-07-29T13:14:13;5.95;;;2.30;;
52438;SDS011;38359;53.150;6.504;2023-07-29T13:24:46;9.85;;;2.97;;
52438;SDS011;38359;53.150;6.504;2023-07-29T13:35:11;13.77;;;2.97;;
52438;SDS011;38359;53.150;6.504;2023-07-29T13:45:43;8.95;;;2.25;;
52438;SDS011;38359;53.150;6.504;2023-07-29T13:56:09;8.32;;;2.47;;
52438;SDS011;38359;53.150;6.504;2023-07-29T14:06:35;9.82;;;2.80;;
52438;SDS011;38359;53.150;6.504;2023-07-29T14:17:07;10.90;;;3.25;;
52438;SDS011;38359;53.150;6.504;2023-07-29T14:27:34;6.30;;;2.60;;
52438;SDS011;38359;53.150;6.504;2023-07-29T14:38:00;5.90;;;2.10;;
52438;SDS011;38359;53.150;6.504;2023-07-29T14:48:26;5.47;;;2.13;;
52438;SDS011;38359;53.150;6.504;2023-07-29T14:58:52;4.20;;;1.73;;
52438;SDS011;38359;53.150;6.504;2023-07-29T15:09:18;8.63;;;2.05;;
52438;SDS011;38359;53.150;6.504;2023-07-29T15:19:44;7.45;;;2.20;;
52438;SDS011;38359;53.150;6.504;2023-07-29T15:30:16;5.45;;;1.50;;
52438;SDS011;38359;53.150;6.504;2023-07-29T15:40:42;4.72;;;1.33;;
52438;SDS011;38359;53.150;6.504;2023-07-29T15:51:07;6.75;;;1.80;;
52438;SDS011;38359;53.150;6.504;2023-07-29T16:01:33;4.15;;;1.15;;
52438;SDS011;38359;53.150;6.504;2023-07-29T16:11:59;3.60;;;1.17;;
52438;SDS011;38359;53.150;6.504;2023-07-29T16:22:33;5.80;;;1.30;;
52438;SDS011;38359;53.150;6.504;2023-07-29T16:32:59;4.03;;;1.13;;
52438;SDS011;38359;53.150;6.504;2023-07-29T16:43:25;4.15;;;1.00;;
52438;SDS011;38359;53.150;6.504;2023-07-29T16:53:51;4.60;;;1.20;;
52438;SDS011;38359;53.150;6.504;2023-07-29T17:04:23;12.90;;;1.38;;
52438;SDS011;38359;53.150;6.504;2023-07-29T17:15:03;1.52;;;0.80;;
52438;SDS011;38359;53.150;6.504;2023-07-29T17:25:32;2.92;;;1.17;;
52438;SDS011;38359;53.150;6.504;2023-07-29T17:35:57;2.85;;;1.25;;
52438;SDS011;38359;53.150;6.504;2023-07-29T17:46:23;3.90;;;1.10;;
52438;SDS011;38359;53.150;6.504;2023-07-29T17:56:49;2.05;;;1.00;;
52438;SDS011;38359;53.150;6.504;2023-07-29T18:07:15;3.40;;;1.05;;
52438;SDS011;38359;53.150;6.504;2023-07-29T18:17:41;6.70;;;1.80;;
52438;SDS011;38359;53.150;6.504;2023-07-29T18:28:13;7.43;;;1.67;;
52438;SDS011;38359;53.150;6.504;2023-07-29T18:38:39;5.97;;;1.48;;
52438;SDS011;38359;53.150;6.504;2023-07-29T18:49:04;6.07;;;1.83;;
52438;SDS011;38359;53.150;6.504;2023-07-29T18:59:33;9.57;;;2.20;;
52438;SDS011;38359;53.150;6.504;2023-07-29T19:09:58;3.60;;;1.80;;
52438;SDS011;38359;53.150;6.504;2023-07-29T19:20:24;6.00;;;2.55;;
52438;SDS011;38359;53.150;6.504;2023-07-29T19:30:57;7.20;;;2.22;;
52438;SDS011;38359;53.150;6.504;2023-07-29T19:41:23;7.00;;;2.70;;
52438;SDS011;38359;53.150;6.504;2023-07-29T19:51:51;10.95;;;2.75;;
52438;SDS011;38359;53.150;6.504;2023-07-29T20:02:19;8.00;;;2.70;;
52438;SDS011;38359;53.150;6.504;2023-07-29T20:12:51;13.02;;;3.17;;
52438;SDS011;38359;53.150;6.504;2023-07-29T20:23:30;8.88;;;3.33;;
52438;SDS011;38359;53.150;6.504;2023-07-29T20:34:02;12.27;;;3.30;;
52438;SDS011;38359;53.150;6.504;2023-07-29T20:44:28;7.53;;;3.78;;
52438;SDS011;38359;53.150;6.504;2023-07-29T20:54:54;12.77;;;3.58;;
52438;SDS011;38359;53.150;6.504;2023-07-29T21:05:20;12.27;;;4.05;;
52438;SDS011;38359;53.150;6.504;2023-07-29T21:15:49;14.75;;;4.60;;
52438;SDS011;38359;53.150;6.504;2023-07-29T21:26:22;16.92;;;4.50;;
52438;SDS011;38359;53.150;6.504;2023-07-29T21:36:48;14.90;;;4.60;;
52438;SDS011;38359;53.150;6.504;2023-07-29T21:47:14;17.73;;;4.93;;
52438;SDS011;38359;53.150;6.504;2023-07-29T21:57:40;13.70;;;4.10;;
52438;SDS011;38359;53.150;6.504;2023-07-29T22:08:05;18.02;;;4.65;;
52438;SDS011;38359;53.150;6.504;2023-07-29T22:18:37;20.48;;;5.43;;
52438;SDS011;38359;53.150;6.504;2023-07-29T22:29:03;19.10;;;6.03;;
52438;SDS011;38359;53.150;6.504;2023-07-29T22:39:29;24.67;;;6.75;;
52438;SDS011;38359;53.150;6.504;2023-07-29T22:49:55;27.90;;;6.32;;
52438;SDS011;38359;53.150;6.504;2023-07-29T23:00:21;21.13;;;7.10;;
52438;SDS011;38359;53.150;6.504;2023-07-29T23:10:47;29.77;;;7.47;;
52438;SDS011;38359;53.150;6.504;2023-07-29T23:21:12;23.50;;;6.95;;
52438;SDS011;38359;53.150;6.504;2023-07-29T23:31:45;28.33;;;7.40;;
52438;SDS011;38359;53.150;6.504;2023-07-29T23:42:10;32.40;;;6.68;;
52438;SDS011;38359;53.150;6.504;2023-07-29T23:52:36;34.35;;;7.97;;
